sensor_id;sensor_type;location;lat;lon;timestamp;P1;durP1;ratioP1;P2;durP2;ratioP2
78555;SDS011;67851;51.354;7.744;2024-01-27T00:00:00;35.85;;;7.65;;
78555;SDS011;67851;51.354;7.744;2024-01-27T00:02:33;33.90;;;6.22;;
78555;SDS011;67851;51.354;7.744;2024-01-27T00:05:00;34.83;;;5.82;;
78555;SDS011;67851;51.354;7.744;2024-01-27T00:07:27;30.08;;;5.57;;
78555;SDS011;67851;51.354;7.744;2024-01-27T00:09:54;24.35;;;4.63;;
78555;SDS011;67851;51.354;7.744;2024-01-27T00:12:22;28.65;;;4.40;;
78555;SDS011;67851;51.354;7.744;2024-01-27T00:14:49;36.72;;;6.13;;
78555;SDS011;67851;51.354;7.744;2024-01-27T00:17:16;25.73;;;4.43;;
78555;SDS011;67851;51.354;7.744;2024-01-27T00:19:44;41.17;;;6.20;;
78555;SDS011;67851;51.354;7.744;2024-01-27T00:22:10;28.83;;;5.88;;
78555;SDS011;67851;51.354;7.744;2024-01-27T00:24:37;43.63;;;7.70;;
78555;SDS011;67851;51.354;7.744;2024-01-27T00:27:04;43.17;;;6.82;;
78555;SDS011;67851;51.354;7.744;2024-01-27T00:29:31;32.45;;;6.40;;
78555;SDS011;67851;51.354;7.744;2024-01-27T00:31:58;33.42;;;5.40;;
78555;SDS011;67851;51.354;7.744;2024-01-27T00:34:25;30.55;;;5.43;;
78555;SDS011;67851;51.354;7.744;2024-01-27T00:36:54;34.03;;;6.15;;
78555;SDS011;67851;51.354;7.744;2024-01-27T00:39:21;31.52;;;6.18;;
78555;SDS011;67851;51.354;7.744;2024-01-27T00:41:49;44.53;;;6.20;;
78555;SDS011;67851;51.354;7.744;2024-01-27T00:44:16;35.53;;;5.30;;
78555;SDS011;67851;51.354;7.744;2024-01-27T00:46:42;31.95;;;7.47;;
78555;SDS011;67851;51.354;7.744;2024-01-27T00:49:09;32.90;;;8.00;;
78555;SDS011;67851;51.354;7.744;2024-01-27T00:51:36;43.30;;;8.10;;
78555;SDS011;67851;51.354;7.744;2024-01-27T00:54:03;40.17;;;6.85;;
78555;SDS011;67851;51.354;7.744;2024-01-27T00:56:29;39.50;;;8.30;;
78555;SDS011;67851;51.354;7.744;2024-01-27T00:58:57;46.95;;;7.20;;
78555;SDS011;67851;51.354;7.744;2024-01-27T01:01:24;29.25;;;6.38;;
78555;SDS011;67851;51.354;7.744;2024-01-27T01:03:51;51.05;;;8.05;;
78555;SDS011;67851;51.354;7.744;2024-01-27T01:06:18;30.45;;;6.40;;
78555;SDS011;67851;51.354;7.744;2024-01-27T01:08:46;22.92;;;6.50;;
78555;SDS011;67851;51.354;7.744;2024-01-27T01:11:13;33.55;;;6.65;;
78555;SDS011;67851;51.354;7.744;2024-01-27T01:13:42;30.90;;;8.02;;
78555;SDS011;67851;51.354;7.744;2024-01-27T01:16:10;35.35;;;8.05;;
78555;SDS011;67851;51.354;7.744;2024-01-27T01:18:36;46.70;;;7.40;;
78555;SDS011;67851;51.354;7.744;2024-01-27T01:21:03;42.10;;;8.18;;
78555;SDS011;67851;51.354;7.744;2024-01-27T01:23:31;43.17;;;8.32;;
78555;SDS011;67851;51.354;7.744;2024-01-27T01:25:59;41.92;;;7.93;;
78555;SDS011;67851;51.354;7.744;2024-01-27T01:28:26;29.65;;;6.95;;
78555;SDS011;67851;51.354;7.744;2024-01-27T01:30:52;44.22;;;8.18;;
78555;SDS011;67851;51.354;7.744;2024-01-27T01:33:21;37.63;;;8.25;;
78555;SDS011;67851;51.354;7.744;2024-01-27T01:35:48;45.67;;;7.93;;
78555;SDS011;67851;51.354;7.744;2024-01-27T01:38:15;40.28;;;10.82;;
78555;SDS011;67851;51.354;7.744;2024-01-27T01:40:42;43.55;;;10.13;;
78555;SDS011;67851;51.354;7.744;2024-01-27T01:43:10;39.80;;;8.63;;
78555;SDS011;67851;51.354;7.744;2024-01-27T01:45:40;48.88;;;10.38;;
78555;SDS011;67851;51.354;7.744;2024-01-27T01:48:07;46.90;;;9.95;;
78555;SDS011;67851;51.354;7.744;2024-01-27T01:50:35;37.60;;;9.30;;
78555;SDS011;67851;51.354;7.744;2024-01-27T01:53:02;41.03;;;9.18;;
78555;SDS011;67851;51.354;7.744;2024-01-27T01:55:30;38.63;;;9.80;;
78555;SDS011;67851;51.354;7.744;2024-01-27T01:57:57;43.63;;;9.35;;
78555;SDS011;67851;51.354;7.744;2024-01-27T02:00:24;47.60;;;9.60;;
78555;SDS011;67851;51.354;7.744;2024-01-27T02:02:51;38.78;;;9.20;;
78555;SDS011;67851;51.354;7.744;2024-01-27T02:05:18;32.90;;;9.18;;
78555;SDS011;67851;51.354;7.744;2024-01-27T02:07:46;40.53;;;9.55;;
78555;SDS011;67851;51.354;7.744;2024-01-27T02:10:13;51.75;;;9.05;;
78555;SDS011;67851;51.354;7.744;2024-01-27T02:12:44;38.70;;;8.38;;
78555;SDS011;67851;51.354;7.744;2024-01-27T02:15:11;44.10;;;9.45;;
78555;SDS011;67851;51.354;7.744;2024-01-27T02:17:41;47.10;;;9.50;;
78555;SDS011;67851;51.354;7.744;2024-01-27T02:20:08;45.42;;;9.23;;
78555;SDS011;67851;51.354;7.744;2024-01-27T02:22:35;44.83;;;10.50;;
78555;SDS011;67851;51.354;7.744;2024-01-27T02:25:02;55.75;;;9.65;;
78555;SDS011;67851;51.354;7.744;2024-01-27T02:27:29;38.58;;;9.27;;
78555;SDS011;67851;51.354;7.744;2024-01-27T02:29:56;31.52;;;8.63;;
78555;SDS011;67851;51.354;7.744;2024-01-27T02:32:23;42.95;;;9.93;;
78555;SDS011;67851;51.354;7.744;2024-01-27T02:34:50;48.22;;;10.73;;
78555;SDS011;67851;51.354;7.744;2024-01-27T02:37:17;45.63;;;10.60;;
78555;SDS011;67851;51.354;7.744;2024-01-27T02:39:44;31.98;;;9.30;;
78555;SDS011;67851;51.354;7.744;2024-01-27T02:42:10;29.98;;;8.98;;
78555;SDS011;67851;51.354;7.744;2024-01-27T02:44:37;36.33;;;8.10;;
78555;SDS011;67851;51.354;7.744;2024-01-27T02:47:04;38.65;;;7.80;;
78555;SDS011;67851;51.354;7.744;2024-01-27T02:49:31;43.85;;;7.57;;
78555;SDS011;67851;51.354;7.744;2024-01-27T02:51:57;40.70;;;8.73;;
78555;SDS011;67851;51.354;7.744;2024-01-27T02:54:24;45.97;;;8.48;;
78555;SDS011;67851;51.354;7.744;2024-01-27T02:56:51;48.72;;;8.82;;
78555;SDS011;67851;51.354;7.744;2024-01-27T02:59:19;42.30;;;8.93;;
78555;SDS011;67851;51.354;7.744;2024-01-27T03:01:45;36.33;;;8.57;;
78555;SDS011;67851;51.354;7.744;2024-01-27T03:04:12;35.63;;;9.35;;
78555;SDS011;67851;51.354;7.744;2024-01-27T03:06:38;37.75;;;8.02;;
78555;SDS011;67851;51.354;7.744;2024-01-27T03:09:05;47.67;;;9.40;;
78555;SDS011;67851;51.354;7.744;2024-01-27T03:11:32;41.13;;;8.43;;
78555;SDS011;67851;51.354;7.744;2024-01-27T03:13:59;42.03;;;7.88;;
78555;SDS011;67851;51.354;7.744;2024-01-27T03:16:26;39.03;;;8.35;;
78555;SDS011;67851;51.354;7.744;2024-01-27T03:18:52;42.42;;;9.15;;
78555;SDS011;67851;51.354;7.744;2024-01-27T03:21:20;43.35;;;9.18;;
78555;SDS011;67851;51.354;7.744;2024-01-27T03:23:47;42.17;;;7.43;;
78555;SDS011;67851;51.354;7.744;2024-01-27T03:26:13;41.70;;;8.13;;
78555;SDS011;67851;51.354;7.744;2024-01-27T03:28:40;44.58;;;8.40;;
78555;SDS011;67851;51.354;7.744;2024-01-27T03:31:07;51.45;;;9.60;;
78555;SDS011;67851;51.354;7.744;2024-01-27T03:33:34;46.22;;;8.98;;
78555;SDS011;67851;51.354;7.744;2024-01-27T03:36:01;41.03;;;7.85;;
78555;SDS011;67851;51.354;7.744;2024-01-27T03:38:27;39.78;;;8.20;;
78555;SDS011;67851;51.354;7.744;2024-01-27T03:40:54;36.38;;;7.97;;
78555;SDS011;67851;51.354;7.744;2024-01-27T03:43:21;38.33;;;7.72;;
78555;SDS011;67851;51.354;7.744;2024-01-27T03:45:48;37.38;;;7.35;;
78555;SDS011;67851;51.354;7.744;2024-01-27T03:48:14;41.75;;;8.73;;
78555;SDS011;67851;51.354;7.744;2024-01-27T03:50:41;40.58;;;8.80;;
78555;SDS011;67851;51.354;7.744;2024-01-27T03:53:08;40.20;;;8.38;;
78555;SDS011;67851;51.354;7.744;2024-01-27T03:55:35;46.13;;;9.15;;
78555;SDS011;67851;51.354;7.744;2024-01-27T03:58:01;51.58;;;9.55;;
78555;SDS011;67851;51.354;7.744;2024-01-27T04:00:28;43.65;;;8.57;;
78555;SDS011;67851;51.354;7.744;2024-01-27T04:02:59;36.30;;;9.18;;
78555;SDS011;67851;51.354;7.744;2024-01-27T04:05:29;38.03;;;8.98;;
78555;SDS011;67851;51.354;7.744;2024-01-27T04:07:56;42.92;;;8.52;;
78555;SDS011;67851;51.354;7.744;2024-01-27T04:10:23;38.65;;;9.15;;
78555;SDS011;67851;51.354;7.744;2024-01-27T04:12:49;44.30;;;9.65;;
78555;SDS011;67851;51.354;7.744;2024-01-27T04:15:16;35.38;;;9.13;;
78555;SDS011;67851;51.354;7.744;2024-01-27T04:17:43;48.97;;;9.15;;
78555;SDS011;67851;51.354;7.744;2024-01-27T04:20:10;38.38;;;8.10;;
78555;SDS011;67851;51.354;7.744;2024-01-27T04:22:40;42.53;;;8.80;;
78555;SDS011;67851;51.354;7.744;2024-01-27T04:25:07;43.25;;;7.90;;
78555;SDS011;67851;51.354;7.744;2024-01-27T04:27:38;47.00;;;9.32;;
78555;SDS011;67851;51.354;7.744;2024-01-27T04:30:15;37.17;;;9.45;;
78555;SDS011;67851;51.354;7.744;2024-01-27T04:32:41;46.20;;;9.88;;
78555;SDS011;67851;51.354;7.744;2024-01-27T04:35:08;34.17;;;9.48;;
78555;SDS011;67851;51.354;7.744;2024-01-27T04:37:36;59.55;;;11.00;;
78555;SDS011;67851;51.354;7.744;2024-01-27T04:40:06;44.58;;;8.82;;
78555;SDS011;67851;51.354;7.744;2024-01-27T04:42:34;43.63;;;8.97;;
78555;SDS011;67851;51.354;7.744;2024-01-27T04:45:01;36.92;;;8.65;;
78555;SDS011;67851;51.354;7.744;2024-01-27T04:47:30;36.38;;;8.40;;
78555;SDS011;67851;51.354;7.744;2024-01-27T04:49:57;46.42;;;8.70;;
78555;SDS011;67851;51.354;7.744;2024-01-27T04:52:24;51.13;;;9.43;;
78555;SDS011;67851;51.354;7.744;2024-01-27T04:54:53;51.33;;;10.98;;
78555;SDS011;67851;51.354;7.744;2024-01-27T04:57:20;43.08;;;10.32;;
78555;SDS011;67851;51.354;7.744;2024-01-27T04:59:47;46.35;;;9.20;;
78555;SDS011;67851;51.354;7.744;2024-01-27T05:02:14;41.47;;;9.48;;
78555;SDS011;67851;51.354;7.744;2024-01-27T05:04:40;48.38;;;10.57;;
78555;SDS011;67851;51.354;7.744;2024-01-27T05:07:07;46.60;;;10.52;;
78555;SDS011;67851;51.354;7.744;2024-01-27T05:09:34;40.83;;;11.77;;
78555;SDS011;67851;51.354;7.744;2024-01-27T05:12:02;50.90;;;11.48;;
78555;SDS011;67851;51.354;7.744;2024-01-27T05:14:29;46.13;;;12.48;;
78555;SDS011;67851;51.354;7.744;2024-01-27T05:16:55;46.30;;;12.40;;
78555;SDS011;67851;51.354;7.744;2024-01-27T05:19:22;65.20;;;14.30;;
78555;SDS011;67851;51.354;7.744;2024-01-27T05:21:50;68.53;;;15.88;;
78555;SDS011;67851;51.354;7.744;2024-01-27T05:24:17;57.10;;;13.60;;
78555;SDS011;67851;51.354;7.744;2024-01-27T05:26:44;40.63;;;12.55;;
78555;SDS011;67851;51.354;7.744;2024-01-27T05:29:10;46.80;;;13.07;;
78555;SDS011;67851;51.354;7.744;2024-01-27T05:31:37;45.15;;;14.80;;
78555;SDS011;67851;51.354;7.744;2024-01-27T05:34:04;57.65;;;15.50;;
78555;SDS011;67851;51.354;7.744;2024-01-27T05:36:31;67.40;;;16.70;;
78555;SDS011;67851;51.354;7.744;2024-01-27T05:38:58;59.75;;;14.73;;
78555;SDS011;67851;51.354;7.744;2024-01-27T05:41:25;68.93;;;17.70;;
78555;SDS011;67851;51.354;7.744;2024-01-27T05:43:55;48.97;;;15.88;;
78555;SDS011;67851;51.354;7.744;2024-01-27T05:46:26;52.08;;;17.52;;
78555;SDS011;67851;51.354;7.744;2024-01-27T05:48:53;57.72;;;17.08;;
78555;SDS011;67851;51.354;7.744;2024-01-27T05:51:21;59.60;;;18.77;;
78555;SDS011;67851;51.354;7.744;2024-01-27T05:53:49;67.45;;;18.45;;
78555;SDS011;67851;51.354;7.744;2024-01-27T05:56:16;72.22;;;19.60;;
78555;SDS011;67851;51.354;7.744;2024-01-27T05:58:49;65.60;;;20.02;;
78555;SDS011;67851;51.354;7.744;2024-01-27T06:01:19;76.85;;;19.88;;
78555;SDS011;67851;51.354;7.744;2024-01-27T06:03:47;58.93;;;18.70;;
78555;SDS011;67851;51.354;7.744;2024-01-27T06:06:14;66.38;;;20.23;;
78555;SDS011;67851;51.354;7.744;2024-01-27T06:08:41;77.75;;;20.33;;
78555;SDS011;67851;51.354;7.744;2024-01-27T06:11:07;71.55;;;20.02;;
78555;SDS011;67851;51.354;7.744;2024-01-27T06:13:36;71.28;;;19.92;;
78555;SDS011;67851;51.354;7.744;2024-01-27T06:16:08;84.53;;;22.70;;
78555;SDS011;67851;51.354;7.744;2024-01-27T06:18:37;86.13;;;23.13;;
78555;SDS011;67851;51.354;7.744;2024-01-27T06:21:05;83.40;;;23.38;;
78555;SDS011;67851;51.354;7.744;2024-01-27T06:23:32;90.07;;;24.55;;
78555;SDS011;67851;51.354;7.744;2024-01-27T06:25:59;80.50;;;26.08;;
78555;SDS011;67851;51.354;7.744;2024-01-27T06:28:25;74.38;;;24.60;;
78555;SDS011;67851;51.354;7.744;2024-01-27T06:30:52;82.60;;;26.33;;
78555;SDS011;67851;51.354;7.744;2024-01-27T06:33:22;77.40;;;25.20;;
78555;SDS011;67851;51.354;7.744;2024-01-27T06:35:49;84.95;;;25.63;;
78555;SDS011;67851;51.354;7.744;2024-01-27T06:38:15;101.78;;;25.67;;
78555;SDS011;67851;51.354;7.744;2024-01-27T06:40:42;103.05;;;27.95;;
78555;SDS011;67851;51.354;7.744;2024-01-27T06:43:10;109.13;;;29.17;;
78555;SDS011;67851;51.354;7.744;2024-01-27T06:45:38;102.45;;;30.70;;
78555;SDS011;67851;51.354;7.744;2024-01-27T06:48:06;91.10;;;29.45;;
78555;SDS011;67851;51.354;7.744;2024-01-27T06:50:33;103.40;;;33.17;;
78555;SDS011;67851;51.354;7.744;2024-01-27T06:53:00;88.80;;;33.10;;
78555;SDS011;67851;51.354;7.744;2024-01-27T06:55:27;108.93;;;34.17;;
78555;SDS011;67851;51.354;7.744;2024-01-27T06:57:55;106.97;;;35.17;;
78555;SDS011;67851;51.354;7.744;2024-01-27T07:00:22;94.10;;;35.00;;
78555;SDS011;67851;51.354;7.744;2024-01-27T07:02:49;113.00;;;36.47;;
78555;SDS011;67851;51.354;7.744;2024-01-27T07:05:15;102.60;;;33.63;;
78555;SDS011;67851;51.354;7.744;2024-01-27T07:07:42;102.07;;;36.55;;
78555;SDS011;67851;51.354;7.744;2024-01-27T07:10:09;105.10;;;36.95;;
78555;SDS011;67851;51.354;7.744;2024-01-27T07:12:36;102.57;;;34.53;;
78555;SDS011;67851;51.354;7.744;2024-01-27T07:15:03;114.10;;;38.28;;
78555;SDS011;67851;51.354;7.744;2024-01-27T07:17:31;111.38;;;39.08;;
78555;SDS011;67851;51.354;7.744;2024-01-27T07:19:58;118.53;;;36.30;;
78555;SDS011;67851;51.354;7.744;2024-01-27T07:22:25;103.72;;;37.17;;
78555;SDS011;67851;51.354;7.744;2024-01-27T07:24:51;108.40;;;39.28;;
78555;SDS011;67851;51.354;7.744;2024-01-27T07:27:18;128.95;;;37.63;;
78555;SDS011;67851;51.354;7.744;2024-01-27T07:29:47;112.18;;;37.28;;
78555;SDS011;67851;51.354;7.744;2024-01-27T07:32:14;107.10;;;35.80;;
78555;SDS011;67851;51.354;7.744;2024-01-27T07:34:42;109.82;;;35.92;;
78555;SDS011;67851;51.354;7.744;2024-01-27T07:37:10;101.60;;;35.10;;
78555;SDS011;67851;51.354;7.744;2024-01-27T07:39:40;103.10;;;34.55;;
78555;SDS011;67851;51.354;7.744;2024-01-27T07:42:07;118.25;;;33.72;;
78555;SDS011;67851;51.354;7.744;2024-01-27T07:44:34;95.63;;;31.67;;
78555;SDS011;67851;51.354;7.744;2024-01-27T07:47:01;109.07;;;33.05;;
78555;SDS011;67851;51.354;7.744;2024-01-27T07:49:28;117.75;;;36.75;;
78555;SDS011;67851;51.354;7.744;2024-01-27T07:51:55;107.07;;;37.25;;
78555;SDS011;67851;51.354;7.744;2024-01-27T07:54:22;115.32;;;38.55;;
78555;SDS011;67851;51.354;7.744;2024-01-27T07:56:49;110.85;;;36.30;;
78555;SDS011;67851;51.354;7.744;2024-01-27T07:59:16;125.97;;;40.75;;
78555;SDS011;67851;51.354;7.744;2024-01-27T08:01:43;109.05;;;39.97;;
78555;SDS011;67851;51.354;7.744;2024-01-27T08:04:10;112.45;;;39.42;;
78555;SDS011;67851;51.354;7.744;2024-01-27T08:06:47;94.43;;;35.30;;
78555;SDS011;67851;51.354;7.744;2024-01-27T08:09:16;78.28;;;31.75;;
78555;SDS011;67851;51.354;7.744;2024-01-27T08:11:45;76.40;;;29.10;;
78555;SDS011;67851;51.354;7.744;2024-01-27T08:14:12;66.80;;;25.02;;
78555;SDS011;67851;51.354;7.744;2024-01-27T08:16:38;57.17;;;23.52;;
78555;SDS011;67851;51.354;7.744;2024-01-27T08:19:05;53.70;;;21.25;;
78555;SDS011;67851;51.354;7.744;2024-01-27T08:21:32;50.35;;;17.70;;
78555;SDS011;67851;51.354;7.744;2024-01-27T08:24:00;58.42;;;17.25;;
78555;SDS011;67851;51.354;7.744;2024-01-27T08:26:27;42.17;;;15.32;;
78555;SDS011;67851;51.354;7.744;2024-01-27T08:28:53;44.35;;;16.45;;
78555;SDS011;67851;51.354;7.744;2024-01-27T08:31:23;41.58;;;15.50;;
78555;SDS011;67851;51.354;7.744;2024-01-27T08:33:50;36.25;;;15.10;;
78555;SDS011;67851;51.354;7.744;2024-01-27T08:36:17;38.92;;;15.02;;
78555;SDS011;67851;51.354;7.744;2024-01-27T08:38:45;36.65;;;14.75;;
78555;SDS011;67851;51.354;7.744;2024-01-27T08:41:12;39.25;;;15.10;;
78555;SDS011;67851;51.354;7.744;2024-01-27T08:43:40;46.42;;;15.60;;
78555;SDS011;67851;51.354;7.744;2024-01-27T08:46:07;36.30;;;14.98;;
78555;SDS011;67851;51.354;7.744;2024-01-27T08:48:38;29.97;;;10.63;;
78555;SDS011;67851;51.354;7.744;2024-01-27T08:51:05;36.95;;;10.95;;
78555;SDS011;67851;51.354;7.744;2024-01-27T08:53:34;31.83;;;10.25;;
78555;SDS011;67851;51.354;7.744;2024-01-27T08:56:01;21.58;;;9.80;;
78555;SDS011;67851;51.354;7.744;2024-01-27T08:58:32;31.45;;;10.10;;
78555;SDS011;67851;51.354;7.744;2024-01-27T09:00:59;32.15;;;11.52;;
78555;SDS011;67851;51.354;7.744;2024-01-27T09:03:35;26.10;;;9.77;;
78555;SDS011;67851;51.354;7.744;2024-01-27T09:06:03;25.58;;;8.65;;
78555;SDS011;67851;51.354;7.744;2024-01-27T09:08:30;24.25;;;8.95;;
78555;SDS011;67851;51.354;7.744;2024-01-27T09:10:56;29.83;;;8.63;;
78555;SDS011;67851;51.354;7.744;2024-01-27T09:13:26;23.00;;;8.57;;
78555;SDS011;67851;51.354;7.744;2024-01-27T09:15:53;27.05;;;7.53;;
78555;SDS011;67851;51.354;7.744;2024-01-27T09:18:19;26.48;;;7.55;;
78555;SDS011;67851;51.354;7.744;2024-01-27T09:20:50;23.63;;;8.32;;
78555;SDS011;67851;51.354;7.744;2024-01-27T09:23:17;27.50;;;7.65;;
78555;SDS011;67851;51.354;7.744;2024-01-27T09:25:44;23.42;;;7.70;;
78555;SDS011;67851;51.354;7.744;2024-01-27T09:28:11;22.63;;;7.03;;
78555;SDS011;67851;51.354;7.744;2024-01-27T09:30:38;24.50;;;7.25;;
78555;SDS011;67851;51.354;7.744;2024-01-27T09:33:05;25.73;;;7.78;;
78555;SDS011;67851;51.354;7.744;2024-01-27T09:35:34;21.23;;;7.30;;
78555;SDS011;67851;51.354;7.744;2024-01-27T09:38:01;28.50;;;7.43;;
78555;SDS011;67851;51.354;7.744;2024-01-27T09:40:28;26.52;;;6.85;;
78555;SDS011;67851;51.354;7.744;2024-01-27T09:42:55;25.52;;;8.63;;
78555;SDS011;67851;51.354;7.744;2024-01-27T09:45:25;24.50;;;8.43;;
78555;SDS011;67851;51.354;7.744;2024-01-27T09:47:53;28.75;;;7.40;;
78555;SDS011;67851;51.354;7.744;2024-01-27T09:50:20;20.30;;;6.97;;
78555;SDS011;67851;51.354;7.744;2024-01-27T09:52:48;23.58;;;6.97;;
78555;SDS011;67851;51.354;7.744;2024-01-27T09:55:15;17.52;;;6.32;;
78555;SDS011;67851;51.354;7.744;2024-01-27T09:57:42;19.70;;;6.22;;
78555;SDS011;67851;51.354;7.744;2024-01-27T10:00:11;22.65;;;6.93;;
78555;SDS011;67851;51.354;7.744;2024-01-27T10:02:40;23.20;;;6.75;;
78555;SDS011;67851;51.354;7.744;2024-01-27T10:05:08;26.40;;;6.60;;
78555;SDS011;67851;51.354;7.744;2024-01-27T10:07:36;23.60;;;6.07;;
78555;SDS011;67851;51.354;7.744;2024-01-27T10:10:03;18.85;;;5.60;;
78555;SDS011;67851;51.354;7.744;2024-01-27T10:12:32;17.27;;;5.88;;
78555;SDS011;67851;51.354;7.744;2024-01-27T10:14:59;21.48;;;5.80;;
78555;SDS011;67851;51.354;7.744;2024-01-27T10:17:26;27.95;;;6.47;;
78555;SDS011;67851;51.354;7.744;2024-01-27T10:19:59;19.92;;;5.65;;
78555;SDS011;67851;51.354;7.744;2024-01-27T10:22:37;19.50;;;5.40;;
78555;SDS011;67851;51.354;7.744;2024-01-27T10:25:04;22.77;;;5.68;;
78555;SDS011;67851;51.354;7.744;2024-01-27T10:27:32;18.20;;;5.10;;
78555;SDS011;67851;51.354;7.744;2024-01-27T10:30:00;27.55;;;5.97;;
78555;SDS011;67851;51.354;7.744;2024-01-27T10:32:27;22.05;;;5.82;;
78555;SDS011;67851;51.354;7.744;2024-01-27T10:35:01;23.10;;;5.95;;
78555;SDS011;67851;51.354;7.744;2024-01-27T10:37:29;17.33;;;5.18;;
78555;SDS011;67851;51.354;7.744;2024-01-27T10:40:05;18.55;;;4.75;;
78555;SDS011;67851;51.354;7.744;2024-01-27T10:42:34;16.33;;;5.43;;
78555;SDS011;67851;51.354;7.744;2024-01-27T10:45:01;30.38;;;5.53;;
78555;SDS011;67851;51.354;7.744;2024-01-27T10:47:29;16.92;;;4.90;;
78555;SDS011;67851;51.354;7.744;2024-01-27T10:49:57;19.98;;;4.40;;
78555;SDS011;67851;51.354;7.744;2024-01-27T10:52:29;17.98;;;4.53;;
78555;SDS011;67851;51.354;7.744;2024-01-27T10:57:30;21.15;;;5.03;;
78555;SDS011;67851;51.354;7.744;2024-01-27T10:59:57;16.45;;;3.72;;
78555;SDS011;67851;51.354;7.744;2024-01-27T11:02:25;19.65;;;4.47;;
78555;SDS011;67851;51.354;7.744;2024-01-27T11:04:51;17.05;;;4.32;;
78555;SDS011;67851;51.354;7.744;2024-01-27T11:07:22;13.43;;;2.97;;
78555;SDS011;67851;51.354;7.744;2024-01-27T11:09:49;15.18;;;3.35;;
78555;SDS011;67851;51.354;7.744;2024-01-27T11:12:19;13.65;;;3.20;;
78555;SDS011;67851;51.354;7.744;2024-01-27T11:14:50;16.63;;;3.15;;
78555;SDS011;67851;51.354;7.744;2024-01-27T11:17:18;13.60;;;3.42;;
78555;SDS011;67851;51.354;7.744;2024-01-27T11:19:45;13.07;;;3.30;;
78555;SDS011;67851;51.354;7.744;2024-01-27T11:22:25;16.73;;;3.25;;
78555;SDS011;67851;51.354;7.744;2024-01-27T11:25:07;13.98;;;3.15;;
78555;SDS011;67851;51.354;7.744;2024-01-27T11:27:40;16.38;;;3.58;;
78555;SDS011;67851;51.354;7.744;2024-01-27T11:30:23;14.50;;;3.75;;
78555;SDS011;67851;51.354;7.744;2024-01-27T11:33:00;15.95;;;3.90;;
78555;SDS011;67851;51.354;7.744;2024-01-27T11:35:27;14.50;;;3.65;;
78555;SDS011;67851;51.354;7.744;2024-01-27T11:37:54;14.07;;;3.38;;
78555;SDS011;67851;51.354;7.744;2024-01-27T11:40:21;9.52;;;3.00;;
78555;SDS011;67851;51.354;7.744;2024-01-27T11:42:57;13.45;;;3.10;;
78555;SDS011;67851;51.354;7.744;2024-01-27T11:45:26;14.23;;;2.97;;
78555;SDS011;67851;51.354;7.744;2024-01-27T11:47:56;12.00;;;2.75;;
78555;SDS011;67851;51.354;7.744;2024-01-27T11:50:23;16.42;;;3.30;;
78555;SDS011;67851;51.354;7.744;2024-01-27T11:52:51;16.35;;;3.15;;
78555;SDS011;67851;51.354;7.744;2024-01-27T11:55:17;16.60;;;3.88;;
78555;SDS011;67851;51.354;7.744;2024-01-27T11:57:45;13.82;;;3.83;;
78555;SDS011;67851;51.354;7.744;2024-01-27T12:00:12;14.02;;;3.50;;
78555;SDS011;67851;51.354;7.744;2024-01-27T12:02:40;10.63;;;3.22;;
78555;SDS011;67851;51.354;7.744;2024-01-27T12:05:08;15.70;;;3.53;;
78555;SDS011;67851;51.354;7.744;2024-01-27T12:07:35;13.23;;;2.97;;
78555;SDS011;67851;51.354;7.744;2024-01-27T12:10:03;16.38;;;3.00;;
78555;SDS011;67851;51.354;7.744;2024-01-27T12:12:30;14.82;;;3.47;;
78555;SDS011;67851;51.354;7.744;2024-01-27T12:14:57;16.33;;;3.70;;
78555;SDS011;67851;51.354;7.744;2024-01-27T12:17:27;15.70;;;3.40;;
78555;SDS011;67851;51.354;7.744;2024-01-27T12:19:54;12.50;;;3.00;;
78555;SDS011;67851;51.354;7.744;2024-01-27T12:22:28;16.58;;;3.90;;
78555;SDS011;67851;51.354;7.744;2024-01-27T12:24:56;13.88;;;3.03;;
78555;SDS011;67851;51.354;7.744;2024-01-27T12:27:36;10.70;;;3.03;;
78555;SDS011;67851;51.354;7.744;2024-01-27T12:30:04;14.85;;;3.40;;
78555;SDS011;67851;51.354;7.744;2024-01-27T12:32:32;16.38;;;3.65;;
78555;SDS011;67851;51.354;7.744;2024-01-27T12:35:04;15.80;;;3.95;;
78555;SDS011;67851;51.354;7.744;2024-01-27T12:37:35;14.60;;;3.40;;
78555;SDS011;67851;51.354;7.744;2024-01-27T12:40:02;13.38;;;3.67;;
78555;SDS011;67851;51.354;7.744;2024-01-27T12:42:29;15.80;;;3.55;;
78555;SDS011;67851;51.354;7.744;2024-01-27T12:44:56;18.58;;;3.72;;
78555;SDS011;67851;51.354;7.744;2024-01-27T12:47:23;15.68;;;3.05;;
78555;SDS011;67851;51.354;7.744;2024-01-27T12:49:50;14.35;;;3.15;;
78555;SDS011;67851;51.354;7.744;2024-01-27T12:52:17;18.15;;;3.20;;
78555;SDS011;67851;51.354;7.744;2024-01-27T12:54:44;15.15;;;3.78;;
78555;SDS011;67851;51.354;7.744;2024-01-27T12:57:14;22.77;;;5.18;;
78555;SDS011;67851;51.354;7.744;2024-01-27T12:59:41;17.65;;;3.20;;
78555;SDS011;67851;51.354;7.744;2024-01-27T13:02:10;19.85;;;2.85;;
78555;SDS011;67851;51.354;7.744;2024-01-27T13:04:36;13.60;;;2.72;;
78555;SDS011;67851;51.354;7.744;2024-01-27T13:07:06;10.38;;;2.60;;
78555;SDS011;67851;51.354;7.744;2024-01-27T13:09:33;19.98;;;3.83;;
78555;SDS011;67851;51.354;7.744;2024-01-27T13:12:00;12.77;;;2.50;;
78555;SDS011;67851;51.354;7.744;2024-01-27T13:14:28;13.32;;;2.42;;
78555;SDS011;67851;51.354;7.744;2024-01-27T13:16:55;22.58;;;3.88;;
78555;SDS011;67851;51.354;7.744;2024-01-27T13:19:22;16.35;;;2.85;;
78555;SDS011;67851;51.354;7.744;2024-01-27T13:21:49;15.20;;;2.80;;
78555;SDS011;67851;51.354;7.744;2024-01-27T13:24:16;12.10;;;2.92;;
78555;SDS011;67851;51.354;7.744;2024-01-27T13:26:43;17.15;;;2.80;;
78555;SDS011;67851;51.354;7.744;2024-01-27T13:29:10;17.60;;;3.10;;
78555;SDS011;67851;51.354;7.744;2024-01-27T13:31:37;14.43;;;2.40;;
78555;SDS011;67851;51.354;7.744;2024-01-27T13:34:04;11.95;;;2.55;;
78555;SDS011;67851;51.354;7.744;2024-01-27T13:36:31;18.73;;;3.42;;
78555;SDS011;67851;51.354;7.744;2024-01-27T13:39:00;13.88;;;2.67;;
78555;SDS011;67851;51.354;7.744;2024-01-27T13:41:26;14.15;;;2.80;;
78555;SDS011;67851;51.354;7.744;2024-01-27T13:43:53;16.25;;;2.80;;
78555;SDS011;67851;51.354;7.744;2024-01-27T13:46:19;13.90;;;2.42;;
78555;SDS011;67851;51.354;7.744;2024-01-27T13:48:48;11.50;;;2.67;;
78555;SDS011;67851;51.354;7.744;2024-01-27T13:51:15;19.60;;;2.95;;
78555;SDS011;67851;51.354;7.744;2024-01-27T13:53:42;14.35;;;3.10;;
78555;SDS011;67851;51.354;7.744;2024-01-27T13:56:13;17.77;;;3.30;;
78555;SDS011;67851;51.354;7.744;2024-01-27T13:58:41;16.00;;;2.88;;
78555;SDS011;67851;51.354;7.744;2024-01-27T14:01:08;21.52;;;2.67;;
78555;SDS011;67851;51.354;7.744;2024-01-27T14:03:35;13.15;;;3.13;;
78555;SDS011;67851;51.354;7.744;2024-01-27T14:06:03;15.05;;;3.03;;
78555;SDS011;67851;51.354;7.744;2024-01-27T14:08:31;17.27;;;2.72;;
78555;SDS011;67851;51.354;7.744;2024-01-27T14:10:57;15.23;;;3.20;;
78555;SDS011;67851;51.354;7.744;2024-01-27T14:13:24;17.55;;;2.63;;
78555;SDS011;67851;51.354;7.744;2024-01-27T14:15:51;19.70;;;3.17;;
78555;SDS011;67851;51.354;7.744;2024-01-27T14:18:18;11.75;;;2.50;;
78555;SDS011;67851;51.354;7.744;2024-01-27T14:20:49;16.20;;;2.70;;
78555;SDS011;67851;51.354;7.744;2024-01-27T14:23:17;20.95;;;2.95;;
78555;SDS011;67851;51.354;7.744;2024-01-27T14:25:45;11.98;;;2.60;;
78555;SDS011;67851;51.354;7.744;2024-01-27T14:28:13;14.80;;;2.97;;
78555;SDS011;67851;51.354;7.744;2024-01-27T14:30:41;12.90;;;2.25;;
78555;SDS011;67851;51.354;7.744;2024-01-27T14:33:10;11.30;;;1.88;;